sensor_id;sensor_type;location;lat;lon;timestamp;pressure;altitude;pressure_sealevel;temperature;humidity
83633;BME280;73595;53.084;6.696;2024-03-08T00:00:52;102261.22;;;1.08;94.97
83633;BME280;73595;53.084;6.696;2024-03-08T00:03:17;102256.84;;;1.09;94.90
83633;BME280;73595;53.084;6.696;2024-03-08T00:05:43;102246.56;;;1.06;94.94
83633;BME280;73595;53.084;6.696;2024-03-08T00:08:08;102221.13;;;0.92;94.78
83633;BME280;73595;53.084;6.696;2024-03-08T00:10:35;102216.91;;;0.90;94.47
83633;BME280;73595;53.084;6.696;2024-03-08T00:13:00;102248.34;;;1.05;94.96
83633;BME280;73595;53.084;6.696;2024-03-08T00:15:26;102248.34;;;1.05;94.60
83633;BME280;73595;53.084;6.696;2024-03-08T00:17:54;102236.59;;;0.97;95.05
83633;BME280;73595;53.084;6.696;2024-03-08T00:20:20;102235.72;;;0.96;94.78
83633;BME280;73595;53.084;6.696;2024-03-08T00:22:45;102229.53;;;0.99;95.29
83633;BME280;73595;53.084;6.696;2024-03-08T00:25:11;102239.13;;;0.98;94.81
83633;BME280;73595;53.084;6.696;2024-03-08T00:27:39;102243.63;;;0.95;94.74
83633;BME280;73595;53.084;6.696;2024-03-08T00:30:06;102237.47;;;0.96;94.84
83633;BME280;73595;53.084;6.696;2024-03-08T00:32:32;102243.53;;;0.96;94.65
83633;BME280;73595;53.084;6.696;2024-03-08T00:34:58;102243.69;;;0.93;95.01
83633;BME280;73595;53.084;6.696;2024-03-08T00:37:23;102226.66;;;0.86;94.86
83633;BME280;73595;53.084;6.696;2024-03-08T00:39:50;102207.28;;;0.73;95.03
83633;BME280;73595;53.084;6.696;2024-03-08T00:42:16;102241.31;;;0.89;94.78
83633;BME280;73595;53.084;6.696;2024-03-08T00:44:41;102242.38;;;0.85;94.64
83633;BME280;73595;53.084;6.696;2024-03-08T00:47:07;102214.66;;;0.63;95.06
83633;BME280;73595;53.084;6.696;2024-03-08T00:49:32;102228.53;;;0.82;95.02
83633;BME280;73595;53.084;6.696;2024-03-08T00:51:57;102236.53;;;0.79;94.90
83633;BME280;73595;53.084;6.696;2024-03-08T00:54:23;102238.97;;;0.82;94.76
83633;BME280;73595;53.084;6.696;2024-03-08T00:56:48;102234.59;;;0.83;94.90
83633;BME280;73595;53.084;6.696;2024-03-08T00:59:13;102199.94;;;0.62;95.03
83633;BME280;73595;53.084;6.696;2024-03-08T01:01:40;102220.31;;;0.73;94.96
83633;BME280;73595;53.084;6.696;2024-03-08T01:04:05;102174.03;;;0.40;95.05
83633;BME280;73595;53.084;6.696;2024-03-08T01:06:31;102212.06;;;0.63;95.02
83633;BME280;73595;53.084;6.696;2024-03-08T01:08:57;102217.38;;;0.62;94.83
83633;BME280;73595;53.084;6.696;2024-03-08T01:11:22;102212.91;;;0.64;94.99
83633;BME280;73595;53.084;6.696;2024-03-08T01:13:47;102211.22;;;0.63;95.02
83633;BME280;73595;53.084;6.696;2024-03-08T01:16:13;102201.78;;;0.60;95.09
83633;BME280;73595;53.084;6.696;2024-03-08T01:18:38;102194.25;;;0.54;95.24
83633;BME280;73595;53.084;6.696;2024-03-08T01:21:04;102189.88;;;0.54;94.92
83633;BME280;73595;53.084;6.696;2024-03-08T01:23:29;102169.50;;;0.44;95.40
83633;BME280;73595;53.084;6.696;2024-03-08T01:25:55;102179.53;;;0.53;95.49
83633;BME280;73595;53.084;6.696;2024-03-08T01:28:25;102170.34;;;0.44;95.51
83633;BME280;73595;53.084;6.696;2024-03-08T01:30:51;102156.63;;;0.41;95.52
83633;BME280;73595;53.084;6.696;2024-03-08T01:33:22;102166.69;;;0.48;95.42
83633;BME280;73595;53.084;6.696;2024-03-08T01:35:48;102149.78;;;0.38;95.30
83633;BME280;73595;53.084;6.696;2024-03-08T01:38:13;102162.47;;;0.46;95.31
83633;BME280;73595;53.084;6.696;2024-03-08T01:40:38;102137.81;;;0.34;95.37
83633;BME280;73595;53.084;6.696;2024-03-08T01:43:22;102145.38;;;0.40;95.26
83633;BME280;73595;53.084;6.696;2024-03-08T01:45:51;102114.78;;;0.25;95.21
83633;BME280;73595;53.084;6.696;2024-03-08T01:48:17;102149.22;;;0.50;94.84
83633;BME280;73595;53.084;6.696;2024-03-08T01:50:44;102130.78;;;0.36;95.06
83633;BME280;73595;53.084;6.696;2024-03-08T01:53:10;102142.47;;;0.46;95.39
83633;BME280;73595;53.084;6.696;2024-03-08T01:55:44;102122.19;;;0.34;95.00
83633;BME280;73595;53.084;6.696;2024-03-08T01:58:12;102146.88;;;0.44;95.12
83633;BME280;73595;53.084;6.696;2024-03-08T02:00:42;102123.88;;;0.35;95.00
83633;BME280;73595;53.084;6.696;2024-03-08T02:03:09;102135.63;;;0.44;95.20
83633;BME280;73595;53.084;6.696;2024-03-08T02:05:34;102134.09;;;0.40;94.90
83633;BME280;73595;53.084;6.696;2024-03-08T02:08:01;102130.66;;;0.39;94.80
83633;BME280;73595;53.084;6.696;2024-03-08T02:10:26;102129.84;;;0.37;94.84
83633;BME280;73595;53.084;6.696;2024-03-08T02:12:51;102125.44;;;0.39;94.70
83633;BME280;73595;53.084;6.696;2024-03-08T02:15:17;102095.22;;;0.16;94.50
83633;BME280;73595;53.084;6.696;2024-03-08T02:17:42;102126.47;;;0.35;94.50
83633;BME280;73595;53.084;6.696;2024-03-08T02:20:08;102122.19;;;0.34;94.85
83633;BME280;73595;53.084;6.696;2024-03-08T02:22:36;102124.78;;;0.34;94.33
83633;BME280;73595;53.084;6.696;2024-03-08T02:25:02;102109.56;;;0.25;94.34
83633;BME280;73595;53.084;6.696;2024-03-08T02:27:28;102109.56;;;0.25;94.37
83633;BME280;73595;53.084;6.696;2024-03-08T02:29:55;102128.25;;;0.35;94.27
83633;BME280;73595;53.084;6.696;2024-03-08T02:32:21;102117.06;;;0.33;94.10
83633;BME280;73595;53.084;6.696;2024-03-08T02:34:47;102120.50;;;0.33;94.20
83633;BME280;73595;53.084;6.696;2024-03-08T02:37:13;102094.28;;;0.17;93.79
83633;BME280;73595;53.084;6.696;2024-03-08T02:39:38;102111.34;;;0.24;93.54
83633;BME280;73595;53.084;6.696;2024-03-08T02:42:03;102117.38;;;0.25;94.04
83633;BME280;73595;53.084;6.696;2024-03-08T02:44:29;102114.84;;;0.23;93.66
83633;BME280;73595;53.084;6.696;2024-03-08T02:46:54;102116.63;;;0.23;93.78
83633;BME280;73595;53.084;6.696;2024-03-08T02:49:20;102110.78;;;0.18;93.73
83633;BME280;73595;53.084;6.696;2024-03-08T02:51:46;102111.56;;;0.20;94.21
83633;BME280;73595;53.084;6.696;2024-03-08T02:54:11;102089.59;;;0.07;94.12
83633;BME280;73595;53.084;6.696;2024-03-08T02:56:37;102099.72;;;0.13;93.58
83633;BME280;73595;53.084;6.696;2024-03-08T02:59:02;102099.09;;;0.08;93.51
83633;BME280;73595;53.084;6.696;2024-03-08T03:01:28;102087.28;;;0.01;93.87
83633;BME280;73595;53.084;6.696;2024-03-08T03:03:53;102097.47;;;0.05;94.02
83633;BME280;73595;53.084;6.696;2024-03-08T03:06:18;102106.97;;;0.06;93.81
83633;BME280;73595;53.084;6.696;2024-03-08T03:08:46;102107.03;;;0.05;93.70
83633;BME280;73595;53.084;6.696;2024-03-08T03:11:12;102102.91;;;0.01;94.25
83633;BME280;73595;53.084;6.696;2024-03-08T03:13:39;102099.50;;;-0.02;94.14
83633;BME280;73595;53.084;6.696;2024-03-08T03:16:04;102100.63;;;-0.07;94.07
83633;BME280;73595;53.084;6.696;2024-03-08T03:18:30;102089.53;;;-0.11;94.42
83633;BME280;73595;53.084;6.696;2024-03-08T03:20:58;102089.66;;;-0.14;94.28
83633;BME280;73595;53.084;6.696;2024-03-08T03:23:23;102090.44;;;-0.12;94.50
83633;BME280;73595;53.084;6.696;2024-03-08T03:25:49;102098.25;;;-0.12;94.51
83633;BME280;73595;53.084;6.696;2024-03-08T03:28:14;102097.53;;;-0.15;94.57
83633;BME280;73595;53.084;6.696;2024-03-08T03:30:44;102093.09;;;-0.13;94.57
83633;BME280;73595;53.084;6.696;2024-03-08T03:33:09;102070.09;;;-0.22;94.10
83633;BME280;73595;53.084;6.696;2024-03-08T03:35:35;102090.44;;;-0.12;94.41
83633;BME280;73595;53.084;6.696;2024-03-08T03:38:09;102088.88;;;-0.16;94.32
83633;BME280;73595;53.084;6.696;2024-03-08T03:40:34;102079.22;;;-0.14;94.34
83633;BME280;73595;53.084;6.696;2024-03-08T03:43:00;102084.66;;;-0.18;94.19
83633;BME280;73595;53.084;6.696;2024-03-08T03:45:26;102083.81;;;-0.19;94.40
83633;BME280;73595;53.084;6.696;2024-03-08T03:47:52;102064.31;;;-0.29;94.32
83633;BME280;73595;53.084;6.696;2024-03-08T03:50:18;102077.06;;;-0.23;94.29
83633;BME280;73595;53.084;6.696;2024-03-08T03:52:45;102051.72;;;-0.38;94.43
83633;BME280;73595;53.084;6.696;2024-03-08T03:55:10;102065.78;;;-0.23;94.46
83633;BME280;73595;53.084;6.696;2024-03-08T03:57:37;102062.34;;;-0.24;94.58
83633;BME280;73595;53.084;6.696;2024-03-08T04:00:03;102062.47;;;-0.27;94.66
83633;BME280;73595;53.084;6.696;2024-03-08T04:02:29;102051.38;;;-0.31;94.36
83633;BME280;73595;53.084;6.696;2024-03-08T04:04:55;102040.50;;;-0.40;94.45
83633;BME280;73595;53.084;6.696;2024-03-08T04:07:20;102046.50;;;-0.38;94.54
83633;BME280;73595;53.084;6.696;2024-03-08T04:09:46;102016.75;;;-0.51;94.24
83633;BME280;73595;53.084;6.696;2024-03-08T04:12:11;102053.13;;;-0.31;94.49
83633;BME280;73595;53.084;6.696;2024-03-08T04:14:38;102047.13;;;-0.33;94.22
83633;BME280;73595;53.084;6.696;2024-03-08T04:17:05;102038.81;;;-0.41;94.53
83633;BME280;73595;53.084;6.696;2024-03-08T04:19:31;102026.09;;;-0.47;94.78
83633;BME280;73595;53.084;6.696;2024-03-08T04:21:56;102046.34;;;-0.35;94.51
83633;BME280;73595;53.084;6.696;2024-03-08T04:24:22;102038.69;;;-0.38;94.40
83633;BME280;73595;53.084;6.696;2024-03-08T04:26:47;102010.66;;;-0.52;94.37
83633;BME280;73595;53.084;6.696;2024-03-08T04:29:13;102041.34;;;-0.40;94.71
83633;BME280;73595;53.084;6.696;2024-03-08T04:31:40;102038.13;;;-0.45;94.64
83633;BME280;73595;53.084;6.696;2024-03-08T04:34:05;101982.94;;;-0.72;94.83
83633;BME280;73595;53.084;6.696;2024-03-08T04:36:30;102039.47;;;-0.36;94.37
83633;BME280;73595;53.084;6.696;2024-03-08T04:38:56;102034.38;;;-0.39;94.37
83633;BME280;73595;53.084;6.696;2024-03-08T04:41:21;102017.44;;;-0.48;94.35
83633;BME280;73595;53.084;6.696;2024-03-08T04:43:48;102030.16;;;-0.42;94.18
83633;BME280;73595;53.084;6.696;2024-03-08T04:46:14;102025.03;;;-0.43;94.76
83633;BME280;73595;53.084;6.696;2024-03-08T04:48:39;102017.06;;;-0.40;94.71
83633;BME280;73595;53.084;6.696;2024-03-08T04:51:07;102018.00;;;-0.41;94.84
83633;BME280;73595;53.084;6.696;2024-03-08T04:53:32;101993.63;;;-0.59;94.22
83633;BME280;73595;53.084;6.696;2024-03-08T04:55:59;102012.03;;;-0.43;94.38
83633;BME280;73595;53.084;6.696;2024-03-08T04:58:25;102016.38;;;-0.44;94.39
83633;BME280;73595;53.084;6.696;2024-03-08T05:00:50;101991.75;;;-0.56;94.06
83633;BME280;73595;53.084;6.696;2024-03-08T05:03:15;102013.84;;;-0.45;94.09
83633;BME280;73595;53.084;6.696;2024-03-08T05:05:41;102017.31;;;-0.45;94.34
83633;BME280;73595;53.084;6.696;2024-03-08T05:08:06;102013.00;;;-0.46;94.59
83633;BME280;73595;53.084;6.696;2024-03-08T05:10:32;101993.34;;;-0.53;94.14
83633;BME280;73595;53.084;6.696;2024-03-08T05:12:57;101986.06;;;-0.64;93.92
83633;BME280;73595;53.084;6.696;2024-03-08T05:15:23;102009.69;;;-0.49;93.76
83633;BME280;73595;53.084;6.696;2024-03-08T05:17:48;102008.97;;;-0.53;94.62
83633;BME280;73595;53.084;6.696;2024-03-08T05:20:13;102009.97;;;-0.56;94.39
83633;BME280;73595;53.084;6.696;2024-03-08T05:22:39;101992.09;;;-0.63;94.08
83633;BME280;73595;53.084;6.696;2024-03-08T05:25:06;101985.53;;;-0.72;94.16
83633;BME280;73595;53.084;6.696;2024-03-08T05:27:33;102001.53;;;-0.61;94.57
83633;BME280;73595;53.084;6.696;2024-03-08T05:29:59;102002.38;;;-0.60;94.46
83633;BME280;73595;53.084;6.696;2024-03-08T05:32:24;102003.34;;;-0.63;94.15
83633;BME280;73595;53.084;6.696;2024-03-08T05:34:50;101983.84;;;-0.73;94.18
83633;BME280;73595;53.084;6.696;2024-03-08T05:37:15;101994.75;;;-0.65;94.07
83633;BME280;73595;53.084;6.696;2024-03-08T05:39:41;101990.34;;;-0.63;94.34
83633;BME280;73595;53.084;6.696;2024-03-08T05:42:06;101980.69;;;-0.61;94.19
83633;BME280;73595;53.084;6.696;2024-03-08T05:44:34;101987.50;;;-0.58;94.10
83633;BME280;73595;53.084;6.696;2024-03-08T05:46:59;101989.50;;;-0.63;93.68
83633;BME280;73595;53.084;6.696;2024-03-08T05:49:24;101983.72;;;-0.70;94.38
83633;BME280;73595;53.084;6.696;2024-03-08T05:51:50;101999.13;;;-0.65;94.20
83633;BME280;73595;53.084;6.696;2024-03-08T05:54:16;101992.31;;;-0.68;94.27
83633;BME280;73595;53.084;6.696;2024-03-08T05:56:42;101999.13;;;-0.65;94.40
83633;BME280;73595;53.084;6.696;2024-03-08T05:59:08;102007.66;;;-0.62;94.49
83633;BME280;73595;53.084;6.696;2024-03-08T06:01:34;101992.94;;;-0.63;94.08
83633;BME280;73595;53.084;6.696;2024-03-08T06:04:02;101994.72;;;-0.63;94.51
83633;BME280;73595;53.084;6.696;2024-03-08T06:06:27;101981.25;;;-0.73;94.57
83633;BME280;73595;53.084;6.696;2024-03-08T06:08:53;101993.03;;;-0.64;94.26
83633;BME280;73595;53.084;6.696;2024-03-08T06:11:21;102003.28;;;-0.61;94.07
83633;BME280;73595;53.084;6.696;2024-03-08T06:13:47;102003.47;;;-0.66;94.00
83633;BME280;73595;53.084;6.696;2024-03-08T06:16:12;101975.47;;;-0.79;93.86
83633;BME280;73595;53.084;6.696;2024-03-08T06:18:38;102002.56;;;-0.65;94.38
83633;BME280;73595;53.084;6.696;2024-03-08T06:21:05;101998.22;;;-0.64;93.95
83633;BME280;73595;53.084;6.696;2024-03-08T06:23:34;101997.31;;;-0.63;94.13
83633;BME280;73595;53.084;6.696;2024-03-08T06:26:00;101995.75;;;-0.67;93.87
83633;BME280;73595;53.084;6.696;2024-03-08T06:28:26;101989.44;;;-0.62;93.90
83633;BME280;73595;53.084;6.696;2024-03-08T06:30:51;101994.63;;;-0.62;93.79
83633;BME280;73595;53.084;6.696;2024-03-08T06:33:17;101990.28;;;-0.61;93.86
83633;BME280;73595;53.084;6.696;2024-03-08T06:35:43;101993.59;;;-0.58;94.24
83633;BME280;73595;53.084;6.696;2024-03-08T06:38:08;101975.84;;;-0.68;94.08
83633;BME280;73595;53.084;6.696;2024-03-08T06:40:34;101995.13;;;-0.53;93.92
83633;BME280;73595;53.084;6.696;2024-03-08T06:42:59;101993.34;;;-0.53;93.46
83633;BME280;73595;53.084;6.696;2024-03-08T06:45:25;101985.34;;;-0.48;93.87
83633;BME280;73595;53.084;6.696;2024-03-08T06:47:51;101994.72;;;-0.44;93.53
83633;BME280;73595;53.084;6.696;2024-03-08T06:50:16;101987.75;;;-0.44;93.83
83633;BME280;73595;53.084;6.696;2024-03-08T06:52:41;101990.13;;;-0.39;93.48
83633;BME280;73595;53.084;6.696;2024-03-08T06:55:13;101984.78;;;-0.36;93.45
83633;BME280;73595;53.084;6.696;2024-03-08T06:57:41;101987.25;;;-0.33;92.92
83633;BME280;73595;53.084;6.696;2024-03-08T07:00:07;101970.00;;;-0.36;92.80
83633;BME280;73595;53.084;6.696;2024-03-08T07:02:44;101969.84;;;-0.33;92.77
83633;BME280;73595;53.084;6.696;2024-03-08T07:05:11;101987.47;;;-0.19;92.68
83633;BME280;73595;53.084;6.696;2024-03-08T07:07:36;101980.81;;;-0.26;92.49
83633;BME280;73595;53.084;6.696;2024-03-08T07:10:02;101982.81;;;-0.12;92.38
83633;BME280;73595;53.084;6.696;2024-03-08T07:12:28;101968.22;;;-0.16;92.17
83633;BME280;73595;53.084;6.696;2024-03-08T07:14:53;101984.88;;;-0.02;91.57
83633;BME280;73595;53.084;6.696;2024-03-08T07:17:19;101992.50;;;0.03;91.73
83633;BME280;73595;53.084;6.696;2024-03-08T07:19:45;101990.66;;;0.05;91.85
83633;BME280;73595;53.084;6.696;2024-03-08T07:22:10;101981.63;;;0.12;91.58
83633;BME280;73595;53.084;6.696;2024-03-08T07:24:36;101982.31;;;0.16;91.60
83633;BME280;73595;53.084;6.696;2024-03-08T07:27:02;101988.16;;;0.21;91.27
83633;BME280;73595;53.084;6.696;2024-03-08T07:29:27;101984.47;;;0.25;91.02
83633;BME280;73595;53.084;6.696;2024-03-08T07:31:53;101982.41;;;0.32;90.96
83633;BME280;73595;53.084;6.696;2024-03-08T07:34:43;101979.75;;;0.33;91.18
83633;BME280;73595;53.084;6.696;2024-03-08T07:37:08;101980.28;;;0.40;90.81
83633;BME280;73595;53.084;6.696;2024-03-08T07:39:38;101979.13;;;0.45;90.81
83633;BME280;73595;53.084;6.696;2024-03-08T07:42:04;101977.13;;;0.50;90.48
83633;BME280;73595;53.084;6.696;2024-03-08T07:44:29;101968.25;;;0.54;90.42
83633;BME280;73595;53.084;6.696;2024-03-08T07:46:56;101971.38;;;0.61;90.25
83633;BME280;73595;53.084;6.696;2024-03-08T07:49:21;101948.00;;;0.60;89.91
83633;BME280;73595;53.084;6.696;2024-03-08T07:51:46;101950.97;;;0.69;89.77
83633;BME280;73595;53.084;6.696;2024-03-08T07:54:12;101945.34;;;0.77;89.42
83633;BME280;73595;53.084;6.696;2024-03-08T07:56:38;101929.66;;;0.78;89.26
83633;BME280;73595;53.084;6.696;2024-03-08T07:59:03;101932.00;;;0.83;88.75
83633;BME280;73595;53.084;6.696;2024-03-08T08:01:29;101949.47;;;0.98;89.01
83633;BME280;73595;53.084;6.696;2024-03-08T08:03:56;101945.38;;;1.10;88.80
83633;BME280;73595;53.084;6.696;2024-03-08T08:06:21;101943.34;;;1.15;88.44
83633;BME280;73595;53.084;6.696;2024-03-08T08:08:47;101933.00;;;1.14;88.06
83633;BME280;73595;53.084;6.696;2024-03-08T08:11:12;101908.00;;;1.10;87.65
83633;BME280;73595;53.084;6.696;2024-03-08T08:13:38;101930.34;;;1.31;87.95
83633;BME280;73595;53.084;6.696;2024-03-08T08:16:04;101937.56;;;1.42;87.89
83633;BME280;73595;53.084;6.696;2024-03-08T08:18:31;101937.81;;;1.53;87.54
83633;BME280;73595;53.084;6.696;2024-03-08T08:20:58;101938.50;;;1.56;86.89
83633;BME280;73595;53.084;6.696;2024-03-08T08:23:25;101889.16;;;1.36;86.85
83633;BME280;73595;53.084;6.696;2024-03-08T08:25:50;101933.47;;;1.69;86.13
83633;BME280;73595;53.084;6.696;2024-03-08T08:28:17;101918.88;;;1.65;85.96
83633;BME280;73595;53.084;6.696;2024-03-08T08:30:45;101923.91;;;1.84;85.90
83633;BME280;73595;53.084;6.696;2024-03-08T08:33:11;101920.28;;;1.86;85.22
83633;BME280;73595;53.084;6.696;2024-03-08T08:35:37;101912.53;;;1.85;85.13
83633;BME280;73595;53.084;6.696;2024-03-08T08:38:06;101899.81;;;1.79;84.74
83633;BME280;73595;53.084;6.696;2024-03-08T08:40:39;101912.56;;;1.99;84.85
83633;BME280;73595;53.084;6.696;2024-03-08T08:43:04;101907.00;;;2.05;84.44
83633;BME280;73595;53.084;6.696;2024-03-08T08:45:33;101906.22;;;2.19;85.33
83633;BME280;73595;53.084;6.696;2024-03-08T08:47:59;101896.97;;;2.13;84.83
83633;BME280;73595;53.084;6.696;2024-03-08T08:50:27;101898.56;;;2.30;84.20
83633;BME280;73595;53.084;6.696;2024-03-08T08:52:54;101894.59;;;2.39;84.48
83633;BME280;73595;53.084;6.696;2024-03-08T08:55:20;101891.22;;;2.51;84.25
83633;BME280;73595;53.084;6.696;2024-03-08T08:57:47;101887.59;;;2.54;82.92
83633;BME280;73595;53.084;6.696;2024-03-08T09:00:13;101890.78;;;2.59;82.72
83633;BME280;73595;53.084;6.696;2024-03-08T09:02:41;101875.94;;;2.59;81.77
83633;BME280;73595;53.084;6.696;2024-03-08T09:05:07;101883.88;;;2.58;79.69
83633;BME280;73595;53.084;6.696;2024-03-08T09:07:35;101879.75;;;2.68;80.87
83633;BME280;73595;53.084;6.696;2024-03-08T09:10:00;101880.78;;;2.80;81.04
83633;BME280;73595;53.084;6.696;2024-03-08T09:12:26;101880.59;;;2.83;79.91
83633;BME280;73595;53.084;6.696;2024-03-08T09:14:51;101876.69;;;2.90;79.36
83633;BME280;73595;53.084;6.696;2024-03-08T09:17:17;101855.25;;;2.83;78.99
83633;BME280;73595;53.084;6.696;2024-03-08T09:19:48;101870.69;;;3.16;79.43
83633;BME280;73595;53.084;6.696;2024-03-08T09:22:14;101858.72;;;3.12;78.45
83633;BME280;73595;53.084;6.696;2024-03-08T09:24:39;101854.78;;;3.05;77.81
83633;BME280;73595;53.084;6.696;2024-03-08T09:27:05;101860.16;;;3.31;78.52
83633;BME280;73595;53.084;6.696;2024-03-08T09:29:31;101865.69;;;3.26;77.53
83633;BME280;73595;53.084;6.696;2024-03-08T09:31:56;101841.31;;;3.11;77.25
83633;BME280;73595;53.084;6.696;2024-03-08T09:34:22;101813.28;;;2.99;77.70
83633;BME280;73595;53.084;6.696;2024-03-08T09:36:48;101852.22;;;3.32;77.57
83633;BME280;73595;53.084;6.696;2024-03-08T09:39:13;101816.03;;;3.24;77.84
83633;BME280;73595;53.084;6.696;2024-03-08T09:41:43;101816.19;;;3.36;77.44
83633;BME280;73595;53.084;6.696;2024-03-08T09:44:09;101842.66;;;3.58;77.21
83633;BME280;73595;53.084;6.696;2024-03-08T09:46:34;101838.28;;;3.59;76.73
83633;BME280;73595;53.084;6.696;2024-03-08T09:49:00;101834.25;;;3.53;75.64
83633;BME280;73595;53.084;6.696;2024-03-08T09:51:28;101828.91;;;3.82;76.39
83633;BME280;73595;53.084;6.696;2024-03-08T09:53:53;101822.53;;;3.98;76.93
83633;BME280;73595;53.084;6.696;2024-03-08T09:56:20;101801.44;;;3.74;75.34
83633;BME280;73595;53.084;6.696;2024-03-08T09:58:46;101811.84;;;3.89;75.16
83633;BME280;73595;53.084;6.696;2024-03-08T10:01:30;101809.13;;;4.03;75.82
83633;BME280;73595;53.084;6.696;2024-03-08T10:03:57;101804.81;;;4.02;75.82
83633;BME280;73595;53.084;6.696;2024-03-08T10:06:23;101794.03;;;4.06;75.94
83633;BME280;73595;53.084;6.696;2024-03-08T10:08:49;101797.50;;;4.20;76.23
83633;BME280;73595;53.084;6.696;2024-03-08T10:11:17;101786.16;;;4.32;76.08
83633;BME280;73595;53.084;6.696;2024-03-08T10:13:42;101780.28;;;4.28;75.75
83633;BME280;73595;53.084;6.696;2024-03-08T10:16:08;101767.38;;;4.25;74.45
83633;BME280;73595;53.084;6.696;2024-03-08T10:18:33;101783.53;;;4.45;74.82
83633;BME280;73595;53.084;6.696;2024-03-08T10:21:06;101774.06;;;4.55;75.59
83633;BME280;73595;53.084;6.696;2024-03-08T10:23:33;101768.16;;;4.77;75.26
83633;BME280;73595;53.084;6.696;2024-03-08T10:26:12;101749.56;;;4.67;75.36
83633;BME280;73595;53.084;6.696;2024-03-08T10:28:41;101765.09;;;5.07;75.66
83633;BME280;73595;53.084;6.696;2024-03-08T10:31:08;101770.66;;;5.02;73.88
83633;BME280;73595;53.084;6.696;2024-03-08T10:33:33;101751.63;;;4.87;74.47
83633;BME280;73595;53.084;6.696;2024-03-08T10:35:59;101759.19;;;5.16;74.85
83633;BME280;73595;53.084;6.696;2024-03-08T10:38:26;101757.09;;;5.32;73.65
83633;BME280;73595;53.084;6.696;2024-03-08T10:40:51;101734.16;;;5.23;71.95
83633;BME280;73595;53.084;6.696;2024-03-08T10:43:23;101748.81;;;5.50;73.35
83633;BME280;73595;53.084;6.696;2024-03-08T10:49:03;101731.63;;;5.57;71.71
83633;BME280;73595;53.084;6.696;2024-03-08T10:51:32;101727.63;;;5.75;70.74
83633;BME280;73595;53.084;6.696;2024-03-08T10:53:59;101736.94;;;5.79;70.95
83633;BME280;73595;53.084;6.696;2024-03-08T10:56:24;101696.06;;;5.75;69.69
83633;BME280;73595;53.084;6.696;2024-03-08T10:58:53;101723.81;;;5.90;70.20
83633;BME280;73595;53.084;6.696;2024-03-08T11:01:19;101687.75;;;5.92;70.62
83633;BME280;73595;53.084;6.696;2024-03-08T11:03:45;101725.31;;;6.28;70.97
83633;BME280;73595;53.084;6.696;2024-03-08T11:08:41;101712.63;;;6.33;69.98
83633;BME280;73595;53.084;6.696;2024-03-08T11:11:33;101699.59;;;6.32;69.87
83633;BME280;73595;53.084;6.696;2024-03-08T11:14:02;101713.06;;;6.72;72.00
83633;BME280;73595;53.084;6.696;2024-03-08T11:18:54;101690.00;;;6.64;69.34
83633;BME280;73595;53.084;6.696;2024-03-08T11:21:19;101696.56;;;6.70;68.03
83633;BME280;73595;53.084;6.696;2024-03-08T11:26:25;101674.88;;;7.10;67.81
83633;BME280;73595;53.084;6.696;2024-03-08T11:28:50;101679.38;;;7.40;67.09
83633;BME280;73595;53.084;6.696;2024-03-08T11:33:46;101672.91;;;7.44;67.02
83633;BME280;73595;53.084;6.696;2024-03-08T11:36:13;101676.19;;;7.36;66.44
83633;BME280;73595;53.084;6.696;2024-03-08T11:38:44;101683.50;;;7.53;64.55
83633;BME280;73595;53.084;6.696;2024-03-08T11:41:20;101674.25;;;7.38;64.59
83633;BME280;73595;53.084;6.696;2024-03-08T11:43:46;101666.22;;;7.60;64.93
83633;BME280;73595;53.084;6.696;2024-03-08T11:46:13;101660.28;;;7.68;63.93
83633;BME280;73595;53.084;6.696;2024-03-08T11:48:39;101650.91;;;7.85;64.37
83633;BME280;73595;53.084;6.696;2024-03-08T11:51:07;101651.22;;;7.92;64.15
83633;BME280;73595;53.084;6.696;2024-03-08T11:53:33;101613.75;;;7.98;63.52
83633;BME280;73595;53.084;6.696;2024-03-08T11:56:08;101647.53;;;8.04;63.39
83633;BME280;73595;53.084;6.696;2024-03-08T11:58:34;101637.41;;;8.09;61.02
83633;BME280;73595;53.084;6.696;2024-03-08T12:01:03;101638.47;;;7.97;62.39
83633;BME280;73595;53.084;6.696;2024-03-08T12:03:29;101638.41;;;8.18;63.17
83633;BME280;73595;53.084;6.696;2024-03-08T12:06:01;101625.63;;;8.13;62.25
83633;BME280;73595;53.084;6.696;2024-03-08T12:08:30;101624.06;;;8.01;62.32
83633;BME280;73595;53.084;6.696;2024-03-08T12:10:55;101621.78;;;8.27;62.80
83633;BME280;73595;53.084;6.696;2024-03-08T12:13:30;101613.72;;;8.19;64.50
83633;BME280;73595;53.084;6.696;2024-03-08T12:15:59;101620.66;;;8.29;65.68
83633;BME280;73595;53.084;6.696;2024-03-08T12:18:26;101592.56;;;8.09;62.66
83633;BME280;73595;53.084;6.696;2024-03-08T12:21:06;101605.88;;;8.38;63.42
83633;BME280;73595;53.084;6.696;2024-03-08T12:24:03;101598.63;;;8.40;63.41
83633;BME280;73595;53.084;6.696;2024-03-08T12:26:28;101604.06;;;8.48;62.70
83633;BME280;73595;53.084;6.696;2024-03-08T12:28:56;101589.88;;;8.68;62.96
83633;BME280;73595;53.084;6.696;2024-03-08T12:31:39;101597.97;;;8.96;62.81
83633;BME280;73595;53.084;6.696;2024-03-08T12:34:04;101589.34;;;9.04;60.10
83633;BME280;73595;53.084;6.696;2024-03-08T12:36:30;101588.06;;;8.88;60.01
83633;BME280;73595;53.084;6.696;2024-03-08T12:38:55;101583.63;;;8.99;60.38
83633;BME280;73595;53.084;6.696;2024-03-08T12:41:21;101577.09;;;9.03;60.99
83633;BME280;73595;53.084;6.696;2024-03-08T12:43:47;101579.47;;;8.86;59.63
83633;BME280;73595;53.084;6.696;2024-03-08T12:46:20;101563.31;;;8.99;59.12
83633;BME280;73595;53.084;6.696;2024-03-08T12:48:46;101569.44;;;9.00;58.69
83633;BME280;73595;53.084;6.696;2024-03-08T12:51:18;101551.91;;;9.08;58.02
83633;BME280;73595;53.084;6.696;2024-03-08T12:53:44;101562.69;;;9.34;59.18
83633;BME280;73595;53.084;6.696;2024-03-08T12:56:10;101550.09;;;9.09;58.50
83633;BME280;73595;53.084;6.696;2024-03-08T12:58:37;101523.53;;;9.01;58.66
83633;BME280;73595;53.084;6.696;2024-03-08T13:01:03;101536.03;;;9.08;58.24
83633;BME280;73595;53.084;6.696;2024-03-08T13:03:35;101541.16;;;9.19;58.43
83633;BME280;73595;53.084;6.696;2024-03-08T13:06:05;101528.81;;;9.47;57.57
83633;BME280;73595;53.084;6.696;2024-03-08T13:08:36;101534.53;;;9.43;58.01